createdAt,value
2019-05-22T00:00:27.120Z,1007.98
2019-05-22T00:01:07.587Z,1008.01
2019-05-22T00:01:48.067Z,1008.03
2019-05-22T00:02:30.355Z,1007.99
2019-05-22T00:03:10.850Z,1008.02
2019-05-22T00:03:51.241Z,1008.04
2019-05-22T00:04:32.235Z,1007.98
2019-05-22T00:05:15.279Z,1007.98
2019-05-22T00:05:57.472Z,1007.97
2019-05-22T00:06:37.969Z,1007.98
2019-05-22T00:07:18.414Z,1007.88
2019-05-22T00:07:58.947Z,1008.01
2019-05-22T00:08:42.004Z,1008.03
2019-05-22T00:09:24.663Z,1008.01
2019-05-22T00:10:04.213Z,1007.99
2019-05-22T00:11:29.106Z,1008.02
2019-05-22T00:12:10.120Z,1008.02
2019-05-22T00:12:50.518Z,1007.99
2019-05-22T00:13:33.762Z,1008
2019-05-22T00:14:14.221Z,1008.04
2019-05-22T00:14:54.727Z,1008.03
2019-05-22T00:15:38.313Z,1008.02
2019-05-22T00:16:15.635Z,1008.04
2019-05-22T00:16:56.065Z,1008.04
2019-05-22T00:17:37.558Z,1008.07
2019-05-22T00:18:18.100Z,1008.07
2019-05-22T00:19:00.403Z,1008.03
2019-05-22T00:19:40.878Z,1008.06
2019-05-22T00:20:21.280Z,1008.06
2019-05-22T00:21:01.680Z,1008.05
2019-05-22T00:21:42.182Z,1008.01
2019-05-22T00:22:22.563Z,1008.05
2019-05-22T00:23:02.980Z,1008.01
2019-05-22T00:23:43.389Z,1008
2019-05-22T00:24:23.779Z,1008.04
2019-05-22T00:25:04.174Z,1008.09
2019-05-22T00:29:16.390Z,1007.99
2019-05-22T00:29:58.855Z,1008.03
2019-05-22T00:30:39.260Z,1007.95
2019-05-22T00:31:19.623Z,1008.02
2019-05-22T00:32:00.161Z,1008
2019-05-22T00:32:40.740Z,1008
2019-05-22T00:33:21.062Z,1008.01
2019-05-22T00:34:41.941Z,1008.04
2019-05-22T00:35:22.593Z,1008.02
2019-05-22T00:36:02.963Z,1008.06
2019-05-22T00:36:43.423Z,1008.01
2019-05-22T00:37:24.417Z,1008.05
2019-05-22T00:38:04.837Z,1008.06
2019-05-22T00:38:45.365Z,1008.11
2019-05-22T00:39:26.406Z,1008.07
2019-05-22T00:40:06.834Z,1008.08
2019-05-22T00:40:47.223Z,1008.05
2019-05-22T00:41:27.689Z,1008.11
2019-05-22T00:42:08.097Z,1008.11
2019-05-22T00:43:02.853Z,1008.1
2019-05-22T00:43:28.916Z,1008.08
2019-05-22T00:44:09.362Z,1008.09
2019-05-22T00:44:49.778Z,1008.12
2019-05-22T00:45:30.173Z,1008.08
2019-05-22T00:46:10.611Z,1008.12
2019-05-22T00:46:51.070Z,1008.11
2019-05-22T00:47:31.462Z,1008.1
2019-05-22T00:48:11.886Z,1008.13
2019-05-22T00:48:52.313Z,1008.18
2019-05-22T00:49:32.780Z,1008.16
2019-05-22T00:52:01.445Z,1008.12
2019-05-22T00:52:43.493Z,1008.13
2019-05-22T00:53:23.893Z,1008.09
2019-05-22T00:54:04.388Z,1008.12
2019-05-22T00:58:06.951Z,1008.16
2019-05-22T00:58:49.554Z,1008.18
2019-05-22T00:59:30.025Z,1008.14
2019-05-22T01:00:10.458Z,1008.16
2019-05-22T01:00:50.962Z,1008.18
2019-05-22T01:01:31.279Z,1008.15
2019-05-22T01:02:11.721Z,1008.18
2019-05-22T01:02:52.187Z,1008.23
2019-05-22T01:03:32.614Z,1008.18
2019-05-22T01:04:13.083Z,1008.25
2019-05-22T01:04:53.478Z,1008.22
2019-05-22T01:05:33.886Z,1008.22
2019-05-22T01:07:33.614Z,1008.18
2019-05-22T01:08:16.367Z,1008.2
2019-05-22T01:08:56.934Z,1008.26
2019-05-22T01:09:37.567Z,1008.21
2019-05-22T01:10:17.974Z,1008.24
2019-05-22T01:10:58.427Z,1008.22
2019-05-22T01:11:39.887Z,1008.24
2019-05-22T01:12:20.383Z,1008.21
2019-05-22T01:13:00.785Z,1008.24
2019-05-22T01:13:41.297Z,1008.17
2019-05-22T01:14:22.550Z,1008.26
2019-05-22T01:15:03.995Z,1008.25
2019-05-22T01:15:44.137Z,1008.24
2019-05-22T01:16:24.694Z,1008.25
2019-05-22T01:20:29.382Z,1008.25
2019-05-22T01:26:05.917Z,1008.36
2019-05-22T01:26:54.103Z,1008.37
2019-05-22T01:27:46.131Z,1008.35
2019-05-22T01:28:30.096Z,1008.39
2019-05-22T01:29:10.506Z,1008.37
2019-05-22T01:29:50.913Z,1008.38
2019-05-22T01:30:31.313Z,1008.38
2019-05-22T01:31:11.777Z,1008.36
2019-05-22T01:31:52.184Z,1008.37
2019-05-22T01:32:32.621Z,1008.39
2019-05-22T01:33:13.019Z,1008.41
2019-05-22T01:33:53.585Z,1008.41
2019-05-22T01:34:33.871Z,1008.4
2019-05-22T01:35:14.285Z,1008.42
2019-05-22T01:35:54.994Z,1008.41
2019-05-22T01:36:35.410Z,1008.41
2019-05-22T01:37:15.825Z,1008.4
2019-05-22T01:37:56.266Z,1008.39
2019-05-22T01:38:37.498Z,1008.42
2019-05-22T01:39:17.936Z,1008.44
2019-05-22T01:39:58.499Z,1008.44
2019-05-22T01:40:39.214Z,1008.43
2019-05-22T01:41:20.254Z,1008.46
2019-05-22T01:42:00.415Z,1008.47
2019-05-22T01:42:40.798Z,1008.44
2019-05-22T01:43:21.212Z,1008.51
2019-05-22T01:44:01.677Z,1008.54
2019-05-22T01:44:42.090Z,1008.46
2019-05-22T01:45:23.173Z,1008.54
2019-05-22T01:46:03.342Z,1008.51
2019-05-22T01:46:43.804Z,1008.55
2019-05-22T01:47:24.209Z,1008.54
2019-05-22T01:48:04.558Z,1008.58
2019-05-22T01:48:45.955Z,1008.59
2019-05-22T01:49:26.376Z,1008.55
2019-05-22T01:50:06.799Z,1008.57
2019-05-22T01:50:47.247Z,1008.5
2019-05-22T01:51:27.700Z,1008.53
2019-05-22T01:52:08.272Z,1008.52
2019-05-22T01:52:48.885Z,1008.53
2019-05-22T01:53:29.286Z,1008.56
2019-05-22T01:54:09.752Z,1008.58
2019-05-22T01:54:50.177Z,1008.52
2019-05-22T01:55:30.595Z,1008.57
2019-05-22T01:56:11.026Z,1008.56
2019-05-22T01:56:51.467Z,1008.56
2019-05-22T01:57:31.948Z,1008.59
2019-05-22T01:58:12.357Z,1008.57
2019-05-22T01:59:33.290Z,1008.55
2019-05-22T02:00:13.708Z,1008.57
2019-05-22T02:00:54.232Z,1008.61
2019-05-22T02:01:34.670Z,1008.61
2019-05-22T02:02:15.100Z,1008.61
2019-05-22T02:02:55.491Z,1008.6
2019-05-22T02:03:36.000Z,1008.58
2019-05-22T02:04:16.443Z,1008.61
2019-05-22T02:04:56.834Z,1008.56
2019-05-22T02:05:37.294Z,1008.55
2019-05-22T02:06:17.807Z,1008.55
2019-05-22T02:06:58.909Z,1008.57
2019-05-22T02:07:39.319Z,1008.51
2019-05-22T02:08:19.742Z,1008.55
2019-05-22T02:09:00.266Z,1008.53
2019-05-22T02:09:40.774Z,1008.56
2019-05-22T02:10:22.160Z,1008.5
2019-05-22T02:11:02.600Z,1008.47
2019-05-22T02:11:42.935Z,1008.49
2019-05-22T02:12:23.417Z,1008.51
2019-05-22T02:13:03.923Z,1008.51
2019-05-22T02:13:44.378Z,1008.55
2019-05-22T02:14:24.758Z,1008.46
2019-05-22T02:15:05.736Z,1008.53
2019-05-22T02:15:46.269Z,1008.51
2019-05-22T02:16:26.693Z,1008.56
2019-05-22T02:17:07.085Z,1008.61
2019-05-22T02:17:47.521Z,1008.62
2019-05-22T02:18:27.933Z,1008.57
2019-05-22T02:19:08.485Z,1008.58
2019-05-22T02:19:48.924Z,1008.58
2019-05-22T02:20:29.903Z,1008.6
2019-05-22T02:21:10.344Z,1008.58
2019-05-22T02:21:50.921Z,1008.62
2019-05-22T02:22:31.326Z,1008.61
2019-05-22T02:23:11.914Z,1008.67
2019-05-22T02:23:52.322Z,1008.63
2019-05-22T02:24:32.757Z,1008.62
2019-05-22T02:25:13.172Z,1008.61
2019-05-22T02:25:53.626Z,1008.7
2019-05-22T02:26:34.061Z,1008.69
2019-05-22T02:27:14.450Z,1008.68
2019-05-22T02:28:35.306Z,1008.71
2019-05-22T02:29:15.763Z,1008.7
2019-05-22T02:29:56.176Z,1008.73
2019-05-22T02:30:36.591Z,1008.68
2019-05-22T02:31:16.991Z,1008.71
2019-05-22T02:33:18.466Z,1008.71
2019-05-22T02:34:04.164Z,1008.72
2019-05-22T02:34:44.611Z,1008.74
2019-05-22T02:35:24.999Z,1008.75
2019-05-22T02:36:05.560Z,1008.8
2019-05-22T02:36:46.010Z,1008.75
2019-05-22T02:37:26.398Z,1008.81
2019-05-22T02:38:07.046Z,1008.79
2019-05-22T02:38:47.487Z,1008.79
2019-05-22T02:39:27.923Z,1008.73
2019-05-22T02:40:08.361Z,1008.83
2019-05-22T02:40:49.457Z,1008.83
2019-05-22T02:41:29.848Z,1008.84
2019-05-22T02:42:10.321Z,1008.85
2019-05-22T02:42:50.911Z,1008.87
2019-05-22T02:43:31.264Z,1008.87
2019-05-22T02:44:11.843Z,1008.83
2019-05-22T02:44:52.120Z,1008.88
2019-05-22T02:45:32.757Z,1008.81
2019-05-22T02:46:13.149Z,1008.91
2019-05-22T02:46:53.597Z,1008.9
2019-05-22T02:47:34.013Z,1008.85
2019-05-22T02:48:14.466Z,1008.86
2019-05-22T02:48:54.929Z,1008.86
2019-05-22T02:52:57.753Z,1008.86
2019-05-22T02:53:46.056Z,1008.86
2019-05-22T02:54:26.497Z,1008.89
2019-05-22T02:55:06.932Z,1008.84
2019-05-22T02:55:47.350Z,1008.86
2019-05-22T02:56:27.964Z,1008.89
2019-05-22T02:57:08.522Z,1008.84
2019-05-22T02:57:49.006Z,1008.87
2019-05-22T02:58:29.428Z,1008.83
2019-05-22T02:59:10.117Z,1008.86
2019-05-22T02:59:50.503Z,1008.86
2019-05-22T03:00:31.097Z,1008.89
2019-05-22T03:01:12.372Z,1008.83
2019-05-22T03:01:52.809Z,1008.89
2019-05-22T03:02:33.206Z,1008.89
2019-05-22T03:03:13.551Z,1008.85
2019-05-22T03:03:54.167Z,1008.9
2019-05-22T03:04:34.500Z,1008.87
2019-05-22T03:05:14.944Z,1008.85
2019-05-22T03:05:55.462Z,1008.88
2019-05-22T03:06:36.468Z,1008.84
2019-05-22T03:07:16.910Z,1008.88
2019-05-22T03:07:57.351Z,1008.87
2019-05-22T03:08:37.889Z,1008.9
2019-05-22T03:09:18.523Z,1008.92
2019-05-22T03:09:59.017Z,1008.93
2019-05-22T03:10:39.524Z,1008.87
2019-05-22T03:11:19.952Z,1008.95
2019-05-22T03:12:00.414Z,1008.9
2019-05-22T03:12:40.795Z,1008.92
2019-05-22T03:13:21.296Z,1008.87
2019-05-22T03:14:01.882Z,1008.85
2019-05-22T03:14:42.350Z,1008.9
2019-05-22T03:15:22.832Z,1008.96
2019-05-22T03:16:03.212Z,1008.91
2019-05-22T03:16:43.628Z,1008.9
2019-05-22T03:17:24.540Z,1008.98
2019-05-22T03:18:04.975Z,1008.96
2019-05-22T03:18:45.416Z,1008.97
2019-05-22T03:19:25.892Z,1008.97
2019-05-22T03:20:06.634Z,1008.98
2019-05-22T03:20:46.902Z,1009.01
2019-05-22T03:21:27.302Z,1009.02
2019-05-22T03:22:07.701Z,1009.01
2019-05-22T03:22:48.098Z,1009.05
2019-05-22T03:23:28.531Z,1008.96
2019-05-22T03:24:08.977Z,1009.02
2019-05-22T03:24:49.481Z,1008.97
2019-05-22T03:25:30.219Z,1009.05
2019-05-22T03:26:10.691Z,1009.05
2019-05-22T03:26:51.021Z,1009.03
2019-05-22T03:27:31.405Z,1009.03
2019-05-22T03:28:11.972Z,1009.05
2019-05-22T03:28:52.400Z,1009.11
2019-05-22T03:29:32.858Z,1009.11
2019-05-22T03:30:13.377Z,1009.11
2019-05-22T03:30:53.895Z,1009.08
2019-05-22T03:31:34.317Z,1009.13
2019-05-22T03:32:15.101Z,1009.17
2019-05-22T03:32:55.295Z,1009.1
2019-05-22T03:33:36.679Z,1009.11
2019-05-22T03:34:16.991Z,1009.14
2019-05-22T03:34:57.401Z,1009.14
2019-05-22T03:35:37.825Z,1009.11
2019-05-22T03:36:18.259Z,1009.14
2019-05-22T03:36:58.655Z,1009.15
2019-05-22T03:37:39.072Z,1009.14
2019-05-22T03:38:19.560Z,1009.19
2019-05-22T03:39:00.308Z,1009.15
2019-05-22T03:39:40.717Z,1009.16
2019-05-22T03:40:21.123Z,1009.17
2019-05-22T03:41:01.540Z,1009.2
2019-05-22T03:41:42.184Z,1009.21
2019-05-22T03:42:22.622Z,1009.21
2019-05-22T03:43:03.115Z,1009.21
2019-05-22T03:43:44.238Z,1009.23
2019-05-22T03:44:24.629Z,1009.21
2019-05-22T03:45:05.101Z,1009.2
2019-05-22T03:45:45.671Z,1009.26
2019-05-22T03:47:06.888Z,1009.2
2019-05-22T03:47:47.704Z,1009.23
2019-05-22T03:48:28.193Z,1009.21
2019-05-22T03:49:26.036Z,1009.21
2019-05-22T03:49:49.088Z,1009.09
2019-05-22T03:50:29.579Z,1009.22
2019-05-22T03:51:10.466Z,1009.19
2019-05-22T03:52:31.417Z,1009.16
2019-05-22T03:53:11.853Z,1009.16
2019-05-22T03:53:52.488Z,1009.2
2019-05-22T03:54:33.155Z,1009.19
2019-05-22T03:55:13.567Z,1009.15
2019-05-22T03:55:53.987Z,1009.16
2019-05-22T03:56:34.629Z,1009.16
2019-05-22T03:57:15.068Z,1009.17
2019-05-22T03:57:55.555Z,1009.1
2019-05-22T03:58:35.936Z,1009.14
2019-05-22T03:59:16.385Z,1009.1
2019-05-22T03:59:56.956Z,1009.22
2019-05-22T04:00:42.833Z,1009.14
2019-05-22T04:01:19.078Z,1009.18
2019-05-22T04:02:00.449Z,1009.22
2019-05-22T04:02:41.253Z,1009.18
2019-05-22T04:03:21.683Z,1009.21
2019-05-22T04:04:02.258Z,1009.2
2019-05-22T04:04:42.704Z,1009.2
2019-05-22T04:05:23.125Z,1009.22
2019-05-22T04:06:04.544Z,1009.22
2019-05-22T04:06:44.966Z,1009.21
2019-05-22T04:07:25.450Z,1009.16
2019-05-22T04:08:05.793Z,1009.2
2019-05-22T04:08:47.178Z,1009.23
2019-05-22T04:09:27.805Z,1009.21
2019-05-22T04:10:08.273Z,1009.21
2019-05-22T04:10:48.864Z,1009.28
2019-05-22T04:11:29.499Z,1009.23
2019-05-22T04:12:10.363Z,1009.18
2019-05-22T04:12:50.773Z,1009.19
2019-05-22T04:13:31.204Z,1009.23
2019-05-22T04:14:11.614Z,1009.21
2019-05-22T04:14:52.098Z,1009.21
2019-05-22T04:15:32.507Z,1009.24
2019-05-22T04:16:13.902Z,1009.23
2019-05-22T04:16:54.687Z,1009.21
2019-05-22T04:17:35.116Z,1009.23
2019-05-22T04:18:15.515Z,1009.29
2019-05-22T04:18:56.095Z,1009.27
2019-05-22T04:19:48.151Z,1009.3
2019-05-22T04:20:18.396Z,1009.28
2019-05-22T04:20:58.711Z,1009.27
2019-05-22T04:21:39.374Z,1009.32
2019-05-22T04:22:19.981Z,1009.31
2019-05-22T04:23:00.542Z,1009.32
2019-05-22T04:23:40.980Z,1009.35
2019-05-22T04:24:21.488Z,1009.35
2019-05-22T04:25:01.936Z,1009.33
2019-05-22T04:25:42.354Z,1009.35
2019-05-22T04:26:22.935Z,1009.36
2019-05-22T04:27:03.223Z,1009.33
2019-05-22T04:27:43.605Z,1009.3
2019-05-22T05:11:28.710Z,1009.65
2019-05-22T05:12:09.152Z,1009.68
2019-05-22T05:12:50.310Z,1009.7
2019-05-22T05:13:30.713Z,1009.72
2019-05-22T05:14:11.118Z,1009.76
2019-05-22T05:14:51.612Z,1009.71
2019-05-22T05:15:32.493Z,1009.69
2019-05-22T05:16:12.883Z,1009.75
2019-05-22T05:16:53.405Z,1009.71
2019-05-22T05:21:00.283Z,1009.75
2019-05-22T05:21:40.643Z,1009.77
2019-05-22T05:22:21.060Z,1009.8
2019-05-22T05:23:01.554Z,1009.73
2019-05-22T05:23:42.031Z,1009.77
2019-05-22T05:24:22.368Z,1009.73
2019-05-22T05:25:02.657Z,1009.79
2019-05-22T05:35:24.739Z,1009.89
2019-05-22T05:42:15.630Z,1009.94
2019-05-22T05:44:05.542Z,1009.96
2019-05-22T05:44:46.868Z,1009.93
2019-05-22T05:45:28.639Z,1009.91
2019-05-22T05:46:23.223Z,1009.92
2019-05-22T05:47:04.038Z,1009.96
2019-05-22T05:47:44.526Z,1009.95
2019-05-22T05:48:25.051Z,1009.91
2019-05-22T05:49:05.424Z,1009.93
2019-05-22T05:49:45.929Z,1009.93
2019-05-22T05:51:10.669Z,1009.9
2019-05-22T05:51:52.130Z,1009.9
2019-05-22T05:52:47.724Z,1009.92
2019-05-22T05:53:33.955Z,1009.96
2019-05-22T05:54:16.231Z,1009.98
2019-05-22T05:54:56.768Z,1009.97
2019-05-22T05:55:39.443Z,1009.96
2019-05-22T05:56:20.026Z,1009.99
2019-05-22T05:57:01.147Z,1009.98
2019-05-22T05:57:42.213Z,1010.01
2019-05-22T05:58:23.300Z,1010.03
2019-05-22T05:59:08.049Z,1010.01
2019-05-22T05:59:48.330Z,1010.04
2019-05-22T06:00:29.238Z,1010.03
2019-05-22T06:01:10.195Z,1010
2019-05-22T06:01:51.240Z,1009.99
2019-05-22T06:02:32.235Z,1009.98
2019-05-22T06:03:12.665Z,1010.01
2019-05-22T06:03:53.099Z,1010
2019-05-22T06:04:34.968Z,1010.02
2019-05-22T06:05:13.914Z,1010
2019-05-22T06:05:54.330Z,1010.05
2019-05-22T06:06:35.097Z,1010.03
2019-05-22T06:07:15.329Z,1010.03
2019-05-22T06:08:36.175Z,1010.04
2019-05-22T06:09:17.760Z,1010.04
2019-05-22T06:09:57.489Z,1010.04
2019-05-22T06:10:40.073Z,1010.05
2019-05-22T06:11:20.555Z,1010.08
2019-05-22T06:12:05.270Z,1010.06
2019-05-22T06:12:42.999Z,1010.07
2019-05-22T06:13:23.290Z,1010.05
2019-05-22T06:14:03.669Z,1010.08
2019-05-22T06:14:44.162Z,1010.06
2019-05-22T06:15:24.934Z,1010.11
2019-05-22T06:16:05.366Z,1010.06
2019-05-22T06:16:45.713Z,1010.12
2019-05-22T06:17:26.240Z,1010.07
2019-05-22T06:18:06.812Z,1010.14
2019-05-22T06:18:47.912Z,1010.11
2019-05-22T06:19:28.879Z,1010.13
2019-05-22T06:20:09.670Z,1010.13
2019-05-22T06:21:03.068Z,1010.13
2019-05-22T06:21:30.394Z,1010.12
2019-05-22T06:22:10.727Z,1010.16
2019-05-22T06:22:53.137Z,1010.14
2019-05-22T06:23:33.875Z,1010.16
2019-05-22T06:24:14.437Z,1010.17
2019-05-22T06:24:54.759Z,1010.16
2019-05-22T06:25:35.205Z,1010.17
2019-05-22T06:26:15.644Z,1010.19
2019-05-22T06:26:56.043Z,1010.18
2019-05-22T06:27:36.401Z,1010.2
2019-05-22T06:28:18.151Z,1010.23
2019-05-22T06:28:58.807Z,1010.25
2019-05-22T06:29:40.249Z,1010.22
2019-05-22T06:30:21.718Z,1010.26
2019-05-22T06:31:02.140Z,1010.25
2019-05-22T06:31:42.510Z,1010.26
2019-05-22T06:32:26.374Z,1010.26
2019-05-22T06:33:06.757Z,1010.28
2019-05-22T06:33:47.439Z,1010.24
2019-05-22T06:34:28.137Z,1010.25
2019-05-22T06:35:09.123Z,1010.24
2019-05-22T06:35:49.424Z,1010.2
2019-05-22T06:36:29.893Z,1010.24
2019-05-22T06:37:10.475Z,1010.22
2019-05-22T06:37:51.052Z,1010.25
2019-05-22T06:38:31.831Z,1010.25
2019-05-22T06:39:16.033Z,1010.22
2019-05-22T06:39:56.711Z,1010.25
2019-05-22T06:40:37.297Z,1010.23
2019-05-22T06:41:18.390Z,1010.22
2019-05-22T06:41:59.836Z,1010.22
2019-05-22T06:42:40.285Z,1010.23
2019-05-22T06:43:20.570Z,1010.25
2019-05-22T06:44:01.004Z,1010.2
2019-05-22T06:44:41.779Z,1010.22
2019-05-22T06:45:25.280Z,1010.23
2019-05-22T06:46:05.666Z,1010.24
2019-05-22T06:46:46.170Z,1010.27
2019-05-22T06:47:27.079Z,1010.25
2019-05-22T06:48:07.473Z,1010.3
2019-05-22T06:48:47.874Z,1010.31
2019-05-22T06:49:28.367Z,1010.31
2019-05-22T06:50:08.774Z,1010.32
2019-05-22T06:50:49.555Z,1010.32
2019-05-22T06:51:29.842Z,1010.32
2019-05-22T06:52:12.291Z,1010.31
2019-05-22T06:53:07.347Z,1010.29
2019-05-22T06:53:33.470Z,1010.26
2019-05-22T06:54:14.678Z,1010.25
2019-05-22T06:54:55.303Z,1010.31
2019-05-22T06:55:35.762Z,1010.3
2019-05-22T06:56:16.079Z,1010.28
2019-05-22T06:56:56.560Z,1010.26
2019-05-22T06:57:37.193Z,1010.3
2019-05-22T06:58:17.847Z,1010.25
2019-05-22T06:58:58.402Z,1010.25
2019-05-22T06:59:40.392Z,1010.29
2019-05-22T07:00:20.735Z,1010.28
2019-05-22T07:01:01.509Z,1010.3
2019-05-22T07:01:41.770Z,1010.32
2019-05-22T07:02:22.332Z,1010.34
2019-05-22T07:03:10.530Z,1010.33
2019-05-22T07:05:38.884Z,1010.35
2019-05-22T07:06:21.963Z,1010.34
2019-05-22T07:07:03.454Z,1010.32
2019-05-22T07:07:43.506Z,1010.32
2019-05-22T07:08:27.208Z,1010.35
2019-05-22T07:09:20.128Z,1010.3
2019-05-22T07:10:01.649Z,1010.35
2019-05-22T07:10:45.886Z,1010.3
2019-05-22T07:11:25.182Z,1010.33
2019-05-22T07:38:55.178Z,1010.5
2019-05-22T07:39:35.443Z,1010.52
2019-05-22T07:40:15.947Z,1010.51
2019-05-22T07:40:56.412Z,1010.52
2019-05-22T07:41:36.776Z,1010.55
2019-05-22T07:42:19.084Z,1010.49
2019-05-22T07:44:40.486Z,1010.54
2019-05-22T07:45:22.909Z,1010.57
2019-05-22T07:46:05.724Z,1010.55
2019-05-22T07:46:53.399Z,1010.56
2019-05-22T07:47:36.253Z,1010.56
2019-05-22T07:48:18.896Z,1010.55
2019-05-22T07:48:59.404Z,1010.56
2019-05-22T07:50:22.979Z,1010.59
2019-05-22T07:51:04.149Z,1010.5
2019-05-22T07:51:53.601Z,1010.53
2019-05-22T07:52:26.403Z,1010.53
2019-05-22T07:53:06.873Z,1010.55
2019-05-22T07:53:47.300Z,1010.56
2019-05-22T07:54:28.009Z,1010.54
2019-05-22T07:55:11.887Z,1010.54
2019-05-22T07:55:52.368Z,1010.54
2019-05-22T07:56:32.782Z,1010.56
2019-05-22T07:57:14.023Z,1010.52
2019-05-22T07:57:55.644Z,1010.55
2019-05-22T07:58:36.009Z,1010.53
2019-05-22T07:59:59.591Z,1010.56
2019-05-22T08:00:40.230Z,1010.55
2019-05-22T08:01:21.484Z,1010.55
2019-05-22T08:02:03.800Z,1010.56
2019-05-22T08:02:44.305Z,1010.58
2019-05-22T08:03:24.701Z,1010.58
2019-05-22T08:04:08.822Z,1010.6
2019-05-22T08:04:54.201Z,1010.59
2019-05-22T08:05:35.514Z,1010.59
2019-05-22T08:06:16.965Z,1010.59
2019-05-22T08:06:57.593Z,1010.57
2019-05-22T08:07:37.968Z,1010.58
2019-05-22T08:08:18.902Z,1010.57
2019-05-22T08:09:00.645Z,1010.59
2019-05-22T08:09:41.339Z,1010.58
2019-05-22T08:10:22.955Z,1010.55
2019-05-22T08:11:03.648Z,1010.56
2019-05-22T08:11:47.447Z,1010.59
2019-05-22T08:12:28.056Z,1010.53
2019-05-22T08:13:08.393Z,1010.61
2019-05-22T08:13:48.841Z,1010.58
2019-05-22T08:14:30.703Z,1010.58
2019-05-22T08:15:12.630Z,1010.59
2019-05-22T08:15:53.161Z,1010.56
2019-05-22T08:16:33.972Z,1010.58
2019-05-22T08:17:17.684Z,1010.6
2019-05-22T08:17:59.829Z,1010.53
2019-05-22T08:18:40.427Z,1010.56
2019-05-22T08:19:20.883Z,1010.62
2019-05-22T08:20:01.823Z,1010.58
2019-05-22T08:20:42.641Z,1010.61
2019-05-22T08:21:24.132Z,1010.62
2019-05-22T08:22:07.083Z,1010.66
2019-05-22T08:22:45.082Z,1010.65
2019-05-22T08:23:29.127Z,1010.62
2019-05-22T08:24:09.681Z,1010.67
2019-05-22T08:24:53.900Z,1010.65
2019-05-22T08:25:34.810Z,1010.39
2019-05-22T08:26:15.420Z,1010.65
2019-05-22T08:26:55.841Z,1010.64
2019-05-22T08:27:36.250Z,1010.66
2019-05-22T08:28:17.771Z,1010.65
2019-05-22T08:28:58.503Z,1010.71
2019-05-22T08:29:41.538Z,1010.64
2019-05-22T08:30:20.251Z,1010.68
2019-05-22T08:31:01.355Z,1010.72
2019-05-22T08:31:41.197Z,1010.63
2019-05-22T08:32:21.622Z,1010.67
2019-05-22T08:33:02.081Z,1010.66
2019-05-22T08:33:45.263Z,1010.67
2019-05-22T08:34:25.011Z,1010.7
2019-05-22T08:35:05.720Z,1010.72
2019-05-22T08:35:46.435Z,1010.73
2019-05-22T08:36:29.495Z,1010.75
2019-05-22T08:37:10.166Z,1010.71
2019-05-22T08:37:52.936Z,1010.73
2019-05-22T08:38:33.071Z,1010.75
2019-05-22T08:39:13.450Z,1010.72
2019-05-22T08:39:55.578Z,1010.75
2019-05-22T08:40:37.631Z,1010.73
2019-05-22T08:41:18.849Z,1010.76
2019-05-22T08:41:59.157Z,1010.74
2019-05-22T08:42:41.477Z,1010.71
2019-05-22T08:43:21.941Z,1010.73
2019-05-22T08:44:15.770Z,1010.74
2019-05-22T08:44:43.800Z,1010.76
2019-05-22T08:45:25.187Z,1010.79
2019-05-22T08:46:05.742Z,1010.78
2019-05-22T08:46:46.190Z,1010.79
2019-05-22T08:47:28.223Z,1010.78
2019-05-22T08:48:08.731Z,1010.79
2019-05-22T08:48:51.248Z,1010.78
2019-05-22T08:49:37.977Z,1010.78
2019-05-22T08:50:20.232Z,1010.8
2019-05-22T08:51:01.934Z,1010.8
2019-05-22T08:51:45.030Z,1010.79
2019-05-22T08:52:26.606Z,1010.77
2019-05-22T08:53:06.933Z,1010.79
2019-05-22T08:56:56.638Z,1010.78
2019-05-22T08:57:37.679Z,1010.76
2019-05-22T08:58:21.154Z,1010.79
2019-05-22T08:59:18.297Z,1010.75
2019-05-22T08:59:44.503Z,1010.75
2019-05-22T09:01:05.905Z,1010.79
2019-05-22T09:01:46.306Z,1010.8
2019-05-22T09:02:32.946Z,1010.81
2019-05-22T09:03:13.663Z,1010.77
2019-05-22T09:03:53.982Z,1010.79
2019-05-22T09:04:34.603Z,1010.75
2019-05-22T09:05:15.122Z,1010.78
2019-05-22T09:05:55.675Z,1010.81
2019-05-22T09:06:36.825Z,1010.83
2019-05-22T09:07:18.408Z,1010.81
2019-05-22T09:07:58.035Z,1010.81
2019-05-22T09:08:40.731Z,1010.84
2019-05-22T09:09:21.006Z,1010.84
2019-05-22T09:10:01.457Z,1010.84
2019-05-22T09:14:59.949Z,1010.88
2019-05-22T09:15:40.926Z,1010.88
2019-05-22T09:16:22.204Z,1010.9
2019-05-22T09:17:03.490Z,1010.84
2019-05-22T09:17:44.001Z,1010.84
2019-05-22T09:18:25.431Z,1010.84
2019-05-22T09:19:06.294Z,1010.86
2019-05-22T09:23:10.066Z,1010.92
2019-05-22T09:23:51.020Z,1010.9
2019-05-22T09:24:31.431Z,1010.92
2019-05-22T09:25:11.988Z,1010.94
2019-05-22T09:25:54.976Z,1010.94
2019-05-22T09:26:35.434Z,1010.92
2019-05-22T09:27:17.752Z,1010.97
2019-05-22T09:27:58.977Z,1010.95
2019-05-22T09:28:39.467Z,1010.93
2019-05-22T09:29:20.345Z,1010.93
2019-05-22T09:30:01.628Z,1010.93
2019-05-22T09:30:41.893Z,1010.97
2019-05-22T09:31:22.437Z,1010.96
2019-05-22T09:37:02.849Z,1010.97
2019-05-22T09:37:44.613Z,1010.93
2019-05-22T09:38:25.065Z,1010.92
2019-05-22T09:39:07.262Z,1010.9
2019-05-22T09:39:48.626Z,1010.93
2019-05-22T09:40:31.114Z,1010.94
2019-05-22T09:41:11.704Z,1010.95
2019-05-22T09:41:52.326Z,1010.99
2019-05-22T09:42:33.004Z,1010.97
2019-05-22T09:43:14.065Z,1010.96
2019-05-22T09:43:58.733Z,1010.97
2019-05-22T09:44:39.869Z,1010.96
2019-05-22T09:49:34.924Z,1011.02
2019-05-22T09:50:15.413Z,1011.01
2019-05-22T09:50:56.564Z,1011.03
2019-05-22T09:51:37.001Z,1011.01
2019-05-22T09:52:17.337Z,1011.04
2019-05-22T09:53:01.295Z,1011.06
2019-05-22T09:53:41.777Z,1011.03
2019-05-22T09:54:22.289Z,1011.02
2019-05-22T09:55:02.916Z,1011.02
2019-05-22T09:55:47.249Z,1011.02
2019-05-22T09:56:26.397Z,1011.05
2019-05-22T09:57:06.933Z,1011.07
2019-05-22T09:57:47.501Z,1010.99
2019-05-22T09:58:28.044Z,1011.03
2019-05-22T09:59:10.620Z,1011.03
2019-05-22T09:59:52.446Z,1011.03
2019-05-22T10:03:48.173Z,1010.99
2019-05-22T10:04:29.944Z,1010.96
2019-05-22T10:05:10.661Z,1011.01
2019-05-22T10:05:51.871Z,1011.02
2019-05-22T10:06:32.843Z,1010.99
2019-05-22T10:07:13.391Z,1010.98
2019-05-22T10:08:01.221Z,1010.99
2019-05-22T10:08:44.002Z,1011.02
2019-05-22T10:09:28.118Z,1011.01
2019-05-22T10:10:09.155Z,1011.02
2019-05-22T10:10:52.388Z,1010.99
2019-05-22T10:11:35.728Z,1010.98
2019-05-22T10:12:16.448Z,1011.05
2019-05-22T10:13:02.162Z,1011.05
2019-05-22T10:13:44.701Z,1011.05
2019-05-22T10:14:25.553Z,1011.02
2019-05-22T10:15:06.153Z,1011.02
2019-05-22T10:15:51.795Z,1011.05
2019-05-22T10:26:17.798Z,1010.99
2019-05-22T10:26:59.039Z,1011
2019-05-22T10:27:40.074Z,1011
2019-05-22T10:28:21.011Z,1011.04
2019-05-22T10:29:02.370Z,1011.07
2019-05-22T11:09:04.219Z,1010.92
2019-05-22T11:09:46.772Z,1010.95
2019-05-22T11:10:29.214Z,1010.88
2019-05-22T11:11:11.233Z,1010.92
2019-05-22T11:11:51.625Z,1010.9
2019-05-22T11:12:33.110Z,1010.9
2019-05-22T11:13:16.006Z,1010.96
2019-05-22T11:14:00.995Z,1010.91
2019-05-22T11:15:17.333Z,1010.96
2019-05-22T11:15:58.037Z,1010.98
2019-05-22T11:16:38.453Z,1010.96
2019-05-22T11:17:24.104Z,1010.99
2019-05-22T11:18:04.623Z,1010.9
2019-05-22T11:18:45.104Z,1010.97
2019-05-22T11:19:26.549Z,1010.99
2019-05-22T11:20:08.141Z,1010.96
2019-05-22T11:20:49.294Z,1010.89
2019-05-22T11:21:33.228Z,1010.94
2019-05-22T11:22:13.885Z,1010.94
2019-05-22T11:22:54.405Z,1010.94
2019-05-22T11:24:17.946Z,1010.92
2019-05-22T11:25:00.683Z,1010.88
2019-05-22T11:25:41.780Z,1010.89
2019-05-22T11:26:26.593Z,1010.9
2019-05-22T11:27:06.810Z,1010.89
2019-05-22T11:27:51.231Z,1010.86
2019-05-22T11:28:31.776Z,1010.85
2019-05-22T11:29:28.792Z,1010.81
2019-05-22T11:30:09.254Z,1010.82
2019-05-22T11:30:50.618Z,1010.81
2019-05-22T11:31:32.083Z,1010.82
2019-05-22T11:32:17.148Z,1010.85
2019-05-22T11:33:00.241Z,1010.86
2019-05-22T11:33:40.963Z,1010.85
2019-05-22T11:34:23.211Z,1010.81
2019-05-22T11:35:04.362Z,1010.82
2019-05-22T11:35:48.427Z,1010.8
2019-05-22T11:36:32.668Z,1010.8
2019-05-22T11:37:15.173Z,1010.85